Time;durP1;ratioP1;P1;durP2;ratioP2;P2;SDS_P1;SDS_P2;PMS_P1;PMS_P2;Temp;Humidity;BMP_temperature;BMP_pressure;BME280_temperature;BME280_humidity;BME280_pressure;Samples;Min_cycle;Max_cycle;Signal;HPM_P1;HPM_P2
2021/10/25 00:00:51;;;;;;;6.87;4.43;;;8.20;99.90;;;;;;5028630;28;20248;-74
2021/10/25 00:03:17;;;;;;;6.77;4.27;;;8.20;99.90;;;;;;5029079;28;20294;-74
2021/10/25 00:05:44;;;;;;;5.40;4.13;;;8.10;99.90;;;;;;5029017;28;20204;-74
2021/10/25 00:08:13;;;;;;;6.10;4.40;;;8.10;99.90;;;;;;5028843;28;20231;-74
2021/10/25 00:10:40;;;;;;;4.93;4.37;;;8.10;99.90;;;;;;5028735;28;20263;-74
2021/10/25 00:13:07;;;;;;;5.90;4.47;;;8.10;99.90;;;;;;5028677;28;20200;-74
2021/10/25 00:15:34;;;;;;;6.27;4.57;;;8.10;99.90;;;;;;5028622;28;20236;-73
2021/10/25 00:18:00;;;;;;;7.47;4.80;;;8.10;99.90;;;;;;5029027;28;20682;-76
2021/10/25 00:20:27;;;;;;;9.00;5.07;;;8.10;99.90;;;;;;5028887;28;20282;-76
2021/10/25 00:22:55;;;;;;;5.70;4.10;;;8.00;99.90;;;;;;5028980;28;20271;-76
2021/10/25 00:25:23;;;;;;;11.40;4.77;;;8.00;99.90;;;;;;5028752;28;20201;-76
2021/10/25 00:27:50;;;;;;;5.73;4.93;;;8.00;99.90;;;;;;5028342;28;20641;-75
2021/10/25 00:30:16;;;;;;;7.40;4.47;;;8.00;99.90;;;;;;5028480;28;20209;-75
2021/10/25 00:32:43;;;;;;;6.97;4.47;;;8.00;99.90;;;;;;5028553;28;20213;-75
2021/10/25 00:35:10;;;;;;;5.97;4.90;;;8.00;99.90;;;;;;5028739;28;20243;-75
2021/10/25 00:37:37;;;;;;;6.03;4.57;;;7.90;99.90;;;;;;5028483;28;20208;-75
2021/10/25 00:40:05;;;;;;;4.77;4.33;;;7.90;99.90;;;;;;5028410;28;20241;-75
2021/10/25 00:42:33;;;;;;;5.50;4.33;;;7.90;99.90;;;;;;5028417;28;20264;-75
2021/10/25 00:45:00;;;;;;;6.03;5.00;;;7.90;99.90;;;;;;5028720;28;20579;-75
2021/10/25 00:47:27;;;;;;;5.40;4.57;;;7.80;99.90;;;;;;5028326;28;20201;-75
2021/10/25 00:49:54;;;;;;;5.37;4.60;;;7.80;99.90;;;;;;5028490;28;20340;-75
2021/10/25 00:52:21;;;;;;;5.37;4.30;;;7.80;99.90;;;;;;5028341;28;20205;-74
2021/10/25 00:54:48;;;;;;;5.40;4.90;;;7.80;99.90;;;;;;5028304;28;20208;-74
2021/10/25 00:57:14;;;;;;;6.63;4.63;;;7.70;99.90;;;;;;5028102;28;20229;-74
2021/10/25 00:59:42;;;;;;;5.67;4.60;;;7.70;99.90;;;;;;5028167;28;20212;-74
2021/10/25 01:02:09;;;;;;;8.17;4.97;;;7.70;99.90;;;;;;5027960;28;20605;-72
2021/10/25 01:04:36;;;;;;;6.63;4.20;;;7.70;99.90;;;;;;5028343;28;20347;-72
2021/10/25 01:07:03;;;;;;;5.73;4.63;;;7.70;99.90;;;;;;5028329;28;20620;-73
2021/10/25 01:09:31;;;;;;;5.60;4.83;;;7.70;99.90;;;;;;5031870;28;20205;-72
2021/10/25 01:11:57;;;;;;;6.73;4.80;;;7.60;99.90;;;;;;5032099;28;20208;-73
2021/10/25 01:14:24;;;;;;;5.33;4.63;;;7.60;99.90;;;;;;5024051;28;20244;-72
2021/10/25 01:16:53;;;;;;;7.37;4.43;;;7.70;99.90;;;;;;5012272;28;20283;-72
2021/10/25 01:19:20;;;;;;;6.67;4.50;;;7.60;99.90;;;;;;5012155;28;20280;-72
2021/10/25 01:21:48;;;;;;;7.07;4.67;;;7.50;99.90;;;;;;5012214;28;20229;-72
2021/10/25 01:24:15;;;;;;;6.07;4.27;;;7.50;99.90;;;;;;5012156;28;20213;-73
2021/10/25 01:26:42;;;;;;;6.27;4.73;;;7.50;99.90;;;;;;5012301;28;20210;-72
2021/10/25 01:29:09;;;;;;;5.20;4.40;;;7.50;99.90;;;;;;5011808;28;20653;-72
2021/10/25 01:31:36;;;;;;;6.97;4.37;;;7.50;99.90;;;;;;5012049;28;20270;-72
2021/10/25 01:34:03;;;;;;;8.13;4.50;;;7.50;99.90;;;;;;5012131;28;20209;-73
2021/10/25 01:36:29;;;;;;;7.67;4.17;;;7.50;99.90;;;;;;5012170;28;20205;-73
2021/10/25 01:38:58;;;;;;;5.60;4.10;;;7.50;99.90;;;;;;5011933;28;20624;-73
2021/10/25 01:41:24;;;;;;;4.73;4.23;;;7.50;99.90;;;;;;5011599;28;20328;-73
2021/10/25 01:43:52;;;;;;;4.93;4.53;;;7.50;99.90;;;;;;5011935;28;20202;-73
2021/10/25 01:46:18;;;;;;;4.40;4.00;;;7.50;99.90;;;;;;5011771;28;20205;-73
2021/10/25 01:48:45;;;;;;;4.80;4.23;;;7.40;99.90;;;;;;5011857;28;20236;-74
2021/10/25 01:51:12;;;;;;;6.53;4.67;;;7.50;99.90;;;;;;5011656;28;20361;-74
2021/10/25 01:53:39;;;;;;;6.00;4.43;;;7.40;99.90;;;;;;5011726;28;20220;-73
2021/10/25 01:56:09;;;;;;;8.20;4.50;;;7.40;99.90;;;;;;5011646;28;20214;-74
2021/10/25 01:58:36;;;;;;;5.57;4.03;;;7.50;99.90;;;;;;5011429;28;20598;-73
2021/10/25 02:01:04;;;;;;;5.10;3.90;;;7.50;99.90;;;;;;5010456;28;20311;-73
2021/10/25 02:03:32;;;;;;;4.70;3.90;;;7.50;99.90;;;;;;5010348;28;20216;-73
2021/10/25 02:05:59;;;;;;;6.60;4.33;;;7.50;99.90;;;;;;5010361;28;20232;-72
2021/10/25 02:08:26;;;;;;;4.43;3.90;;;7.50;99.90;;;;;;5010188;28;20216;-72
2021/10/25 02:10:53;;;;;;;5.23;3.80;;;7.50;99.90;;;;;;5010242;28;20267;-72
2021/10/25 02:13:21;;;;;;;4.33;3.77;;;7.50;99.90;;;;;;5010086;28;20231;-72
2021/10/25 02:15:48;;;;;;;5.13;3.93;;;7.50;99.90;;;;;;5010577;28;20220;-72
2021/10/25 02:18:16;;;;;;;7.07;3.90;;;7.50;99.90;;;;;;5009729;28;20213;-72
2021/10/25 02:20:43;;;;;;;6.27;3.87;;;7.50;99.90;;;;;;5010107;28;20233;-72
2021/10/25 02:23:10;;;;;;;5.70;3.67;;;7.60;99.90;;;;;;5009705;28;20222;-78
2021/10/25 02:25:38;;;;;;;5.27;3.93;;;7.60;99.90;;;;;;5011538;28;20291;-77
2021/10/25 02:28:05;;;;;;;5.50;3.97;;;7.60;99.90;;;;;;5010066;28;20687;-77
2021/10/25 02:30:34;;;;;;;6.00;4.00;;;7.60;99.90;;;;;;5010193;28;20304;-75
2021/10/25 02:33:01;;;;;;;5.20;3.90;;;7.60;99.90;;;;;;5010565;28;20299;-73
2021/10/25 02:35:29;;;;;;;5.00;4.17;;;7.60;99.90;;;;;;5009919;28;20201;-74
2021/10/25 02:37:56;;;;;;;5.30;3.50;;;7.60;99.90;;;;;;5018122;28;20208;-74
2021/10/25 02:40:25;;;;;;;6.07;3.97;;;7.60;99.90;;;;;;5025673;28;20339;-74
2021/10/25 02:42:52;;;;;;;4.27;3.43;;;7.60;99.90;;;;;;5025566;28;20208;-74
2021/10/25 02:45:18;;;;;;;4.03;3.37;;;7.60;99.90;;;;;;5025208;28;20236;-75
2021/10/25 02:47:47;;;;;;;3.90;3.50;;;7.60;99.90;;;;;;5025482;28;20255;-74
2021/10/25 02:50:15;;;;;;;4.37;3.97;;;7.60;99.90;;;;;;5025334;28;20290;-75
2021/10/25 02:52:41;;;;;;;4.33;3.73;;;7.60;99.90;;;;;;5025556;28;20216;-74
2021/10/25 02:55:09;;;;;;;6.83;3.80;;;7.60;99.90;;;;;;5025291;28;20220;-74
2021/10/25 02:57:37;;;;;;;5.70;3.80;;;7.60;99.90;;;;;;5025382;28;20652;-74
2021/10/25 03:00:08;;;;;;;4.70;3.60;;;7.60;99.90;;;;;;4989886;28;1015256;-74
2021/10/25 03:02:34;;;;;;;5.20;3.77;;;7.60;99.90;;;;;;5026382;28;20217;-74
2021/10/25 03:05:03;;;;;;;6.27;3.70;;;7.60;99.90;;;;;;5026758;28;20286;-74
2021/10/25 03:07:31;;;;;;;5.03;3.73;;;7.50;99.90;;;;;;5026158;28;20208;-74
2021/10/25 03:09:58;;;;;;;4.20;3.80;;;7.50;99.90;;;;;;5026195;28;20216;-74
2021/10/25 03:12:26;;;;;;;4.87;3.80;;;7.40;99.90;;;;;;5025685;28;20204;-74
2021/10/25 03:14:53;;;;;;;4.67;3.77;;;7.40;99.90;;;;;;5025742;28;20213;-76
2021/10/25 03:17:20;;;;;;;4.37;3.70;;;7.40;99.90;;;;;;5016911;28;20201;-74
2021/10/25 03:19:47;;;;;;;4.67;4.10;;;7.40;99.90;;;;;;5014667;28;20229;-74
2021/10/25 03:22:15;;;;;;;5.23;4.07;;;7.40;99.90;;;;;;5008281;28;20241;-75
2021/10/25 03:24:44;;;;;;;6.00;3.47;;;7.40;99.90;;;;;;5010070;28;20307;-74
2021/10/25 03:27:10;;;;;;;6.20;3.97;;;7.40;99.90;;;;;;5009762;28;20213;-74
2021/10/25 03:29:37;;;;;;;5.97;4.00;;;7.30;99.90;;;;;;5009330;28;20688;-74
2021/10/25 03:32:05;;;;;;;7.63;3.70;;;7.30;99.90;;;;;;5009371;28;20213;-74
2021/10/25 03:34:31;;;;;;;5.80;4.07;;;7.30;99.90;;;;;;5009883;28;20213;-74
2021/10/25 03:36:59;;;;;;;4.17;3.77;;;7.30;99.90;;;;;;5009761;28;20217;-74
2021/10/25 03:39:31;;;;;;;4.53;3.33;;;7.30;99.90;;;;;;5009629;28;20205;-74
2021/10/25 03:41:58;;;;;;;4.20;3.73;;;7.30;99.90;;;;;;5009370;28;20248;-75
2021/10/25 03:44:27;;;;;;;5.97;3.80;;;7.30;99.90;;;;;;5009671;28;20296;-75
2021/10/25 03:46:57;;;;;;;3.93;3.50;;;7.20;99.90;;;;;;5010014;28;20303;-74
2021/10/25 03:49:31;;;;;;;4.33;3.73;;;7.20;99.90;;;;;;5009534;28;20200;-74
2021/10/25 03:51:59;;;;;;;7.13;3.80;;;7.20;99.90;;;;;;5009101;28;20940;-74
2021/10/25 03:54:35;;;;;;;4.23;3.83;;;7.10;99.90;;;;;;5009267;28;20209;-74
2021/10/25 03:57:33;;;;;;;5.83;3.57;;;7.10;99.90;;;;;;5009527;28;20232;-75
2021/10/25 04:27:30;;;;;;;3.83;3.40;;;6.90;99.90;;;;;;4995594;28;20200;-74
2021/10/25 04:30:02;;;;;;;4.97;3.90;;;6.90;99.90;;;;;;5008872;28;20599;-74
2021/10/25 04:32:29;;;;;;;4.67;3.50;;;6.90;99.90;;;;;;5009070;28;20208;-74
2021/10/25 04:34:55;;;;;;;4.10;3.70;;;6.90;99.90;;;;;;5008728;28;20281;-74
2021/10/25 04:37:22;;;;;;;5.07;3.50;;;6.90;99.90;;;;;;5008701;28;20279;-75
2021/10/25 04:39:49;;;;;;;4.00;3.53;;;6.90;99.90;;;;;;5008602;28;20209;-74
2021/10/25 04:42:16;;;;;;;4.87;3.53;;;6.90;99.90;;;;;;5008036;28;20229;-74
2021/10/25 04:44:45;;;;;;;3.50;3.20;;;6.90;99.90;;;;;;5008737;28;20208;-75
2021/10/25 04:47:11;;;;;;;7.30;4.33;;;6.90;99.90;;;;;;5008506;28;20216;-74
2021/10/25 04:49:38;;;;;;;5.53;3.90;;;6.80;99.90;;;;;;5008672;28;20221;-74
2021/10/25 04:52:05;;;;;;;5.10;3.60;;;6.80;99.90;;;;;;5008355;28;20287;-74
2021/10/25 04:54:32;;;;;;;5.00;3.60;;;6.90;99.90;;;;;;5008682;28;20206;-74
2021/10/25 04:56:58;;;;;;;5.63;3.63;;;6.80;99.90;;;;;;5008465;28;20235;-74
2021/10/25 04:59:25;;;;;;;4.57;3.60;;;6.80;99.90;;;;;;5008253;28;20209;-74
2021/10/25 05:01:53;;;;;;;5.57;3.80;;;6.90;99.90;;;;;;5008134;28;20285;-74
2021/10/25 05:04:20;;;;;;;5.07;3.50;;;6.90;99.90;;;;;;5008406;28;20221;-74
2021/10/25 05:06:48;;;;;;;5.10;3.43;;;6.80;99.90;;;;;;5008119;28;20549;-74
2021/10/25 05:09:15;;;;;;;4.57;3.43;;;6.90;99.90;;;;;;5008181;28;20210;-74
2021/10/25 05:11:42;;;;;;;6.63;3.57;;;6.90;99.90;;;;;;5008410;28;20270;-75
2021/10/25 05:14:09;;;;;;;4.17;3.70;;;6.90;99.90;;;;;;5008069;28;20209;-74
2021/10/25 05:16:35;;;;;;;5.60;4.10;;;6.80;99.90;;;;;;5019816;28;20237;-74
2021/10/25 05:19:03;;;;;;;5.27;3.83;;;6.80;99.90;;;;;;5027939;28;20221;-75
2021/10/25 05:21:30;;;;;;;5.37;3.83;;;6.80;99.90;;;;;;5027770;28;20260;-74
2021/10/25 05:23:57;;;;;;;5.33;3.73;;;6.80;99.90;;;;;;5027931;28;20263;-74
2021/10/25 05:26:23;;;;;;;4.03;3.53;;;6.80;99.90;;;;;;5027752;28;20699;-74
2021/10/25 05:28:50;;;;;;;4.70;3.53;;;6.80;99.90;;;;;;5027677;28;20750;-75
2021/10/25 05:31:17;;;;;;;5.17;3.40;;;6.70;99.90;;;;;;5027982;28;20260;-74
2021/10/25 05:33:43;;;;;;;4.47;3.60;;;6.80;99.90;;;;;;5028066;28;20209;-74
2021/10/25 05:36:11;;;;;;;5.50;3.60;;;6.70;99.90;;;;;;5027986;28;20212;-75
2021/10/25 05:38:39;;;;;;;3.90;3.50;;;6.70;99.90;;;;;;5027878;28;20402;-74
2021/10/25 05:41:08;;;;;;;4.83;3.60;;;6.80;99.90;;;;;;5027560;28;20283;-74
2021/10/25 05:43:36;;;;;;;4.43;3.40;;;6.80;99.90;;;;;;5027628;28;20209;-74
2021/10/25 05:46:02;;;;;;;6.57;3.87;;;6.80;99.90;;;;;;5027827;28;20201;-75
2021/10/25 05:48:29;;;;;;;4.77;3.60;;;6.70;99.90;;;;;;5027757;28;20631;-74
2021/10/25 05:50:56;;;;;;;3.93;3.50;;;6.70;99.90;;;;;;5027997;28;20205;-74
2021/10/25 05:53:24;;;;;;;3.83;3.50;;;6.60;99.90;;;;;;5028175;28;20693;-74
2021/10/25 05:55:50;;;;;;;4.03;3.37;;;6.60;99.90;;;;;;5031454;28;20209;-74
2021/10/25 05:58:20;;;;;;;6.00;3.57;;;6.60;99.90;;;;;;5030968;28;20711;-75
2021/10/25 06:00:51;;;;;;;5.10;3.47;;;6.60;99.90;;;;;;5031294;28;20247;-74
2021/10/25 06:03:20;;;;;;;5.47;3.67;;;6.60;99.90;;;;;;5031047;28;20235;-74
2021/10/25 06:05:47;;;;;;;4.60;3.87;;;6.50;99.90;;;;;;5031304;28;20201;-74
2021/10/25 06:08:15;;;;;;;4.50;3.33;;;6.60;99.90;;;;;;5031086;28;20205;-74
2021/10/25 06:10:43;;;;;;;4.87;3.50;;;6.60;99.90;;;;;;5031243;28;20279;-74
2021/10/25 06:13:11;;;;;;;4.33;3.50;;;6.60;99.90;;;;;;5030987;28;20215;-75
2021/10/25 06:15:39;;;;;;;4.43;3.50;;;6.60;99.90;;;;;;5030947;28;20287;-75
2021/10/25 06:18:08;;;;;;;7.33;3.70;;;6.60;99.90;;;;;;5030696;28;20760;-74
2021/10/25 06:20:37;;;;;;;5.63;3.87;;;6.50;99.90;;;;;;5030842;28;20262;-75
2021/10/25 06:23:09;;;;;;;4.53;3.67;;;6.60;99.90;;;;;;5030800;28;20233;-74
2021/10/25 06:25:36;;;;;;;4.43;3.57;;;6.60;99.90;;;;;;5030922;28;20408;-75
2021/10/25 06:28:05;;;;;;;3.97;3.60;;;6.50;99.90;;;;;;5030542;28;20215;-74
2021/10/25 06:30:32;;;;;;;6.90;3.57;;;6.60;99.90;;;;;;5030472;28;20267;-74
2021/10/25 06:32:58;;;;;;;3.93;3.53;;;6.50;99.90;;;;;;5030757;28;20283;-74
2021/10/25 06:35:26;;;;;;;3.80;3.20;;;6.50;99.90;;;;;;5030703;28;20212;-74
2021/10/25 06:37:58;;;;;;;5.17;3.60;;;6.60;99.90;;;;;;5030923;28;20209;-75
2021/10/25 06:40:29;;;;;;;5.63;3.40;;;6.60;99.90;;;;;;5030013;28;20793;-75
2021/10/25 06:42:56;;;;;;;6.03;3.97;;;6.60;99.90;;;;;;5030469;28;20240;-74
2021/10/25 06:45:25;;;;;;;4.80;3.70;;;6.60;99.90;;;;;;5030468;28;20627;-74
2021/10/25 06:47:53;;;;;;;4.30;3.73;;;6.60;99.90;;;;;;5030447;28;20266;-74
2021/10/25 06:50:22;;;;;;;4.07;3.67;;;6.50;99.90;;;;;;5030304;28;20232;-74
2021/10/25 06:52:50;;;;;;;6.03;3.47;;;6.50;99.90;;;;;;5030349;28;20266;-74
2021/10/25 06:55:17;;;;;;;3.77;3.47;;;6.40;99.90;;;;;;5030164;28;20243;-74
2021/10/25 06:57:44;;;;;;;4.23;3.47;;;6.40;99.90;;;;;;5030198;28;20229;-74
2021/10/25 07:00:13;;;;;;;3.97;3.57;;;6.40;99.90;;;;;;5029851;28;20409;-74
2021/10/25 07:02:41;;;;;;;6.07;3.60;;;6.40;99.90;;;;;;5029927;28;20279;-74
2021/10/25 07:05:09;;;;;;;6.77;3.93;;;6.40;99.90;;;;;;5028813;28;20205;-74
2021/10/25 07:07:36;;;;;;;3.70;3.33;;;6.40;99.90;;;;;;5030146;28;20209;-74
2021/10/25 07:10:04;;;;;;;5.43;3.90;;;6.40;99.90;;;;;;5029934;28;20691;-74
2021/10/25 07:12:31;;;;;;;4.53;4.03;;;6.40;99.90;;;;;;5030037;28;20205;-74
2021/10/25 07:14:58;;;;;;;6.07;3.77;;;6.40;99.90;;;;;;5029717;28;20663;-75
2021/10/25 07:17:31;;;;;;;4.83;3.73;;;6.50;99.90;;;;;;5029522;28;20204;-74
2021/10/25 07:20:11;;;;;;;5.97;3.97;;;6.60;99.90;;;;;;5029592;28;20204;-74
2021/10/25 07:22:57;;;;;;;4.03;3.40;;;6.70;99.90;;;;;;5029701;28;20221;-74
2021/10/25 08:06:51;;;;;;;4.07;3.77;;;7.90;99.90;;;;;;5026931;28;20251;-75
2021/10/25 08:09:27;;;;;;;6.33;4.03;;;8.00;99.90;;;;;;5028759;28;20196;-75
2021/10/25 08:11:56;;;;;;;3.93;3.50;;;8.10;99.90;;;;;;5029028;28;20234;-75
2021/10/25 08:14:29;;;;;;;4.10;3.37;;;8.00;99.90;;;;;;5028849;28;20215;-75
2021/10/25 08:16:56;;;;;;;4.00;3.60;;;8.10;99.90;;;;;;5028572;28;20212;-75
2021/10/25 08:19:24;;;;;;;4.23;3.37;;;8.10;99.90;;;;;;5028703;28;20220;-75
2021/10/25 08:21:57;;;;;;;4.07;3.47;;;8.20;99.90;;;;;;5028124;28;20737;-75
2021/10/25 08:24:26;;;;;;;3.93;3.60;;;8.20;99.90;;;;;;5028671;28;20197;-75
2021/10/25 08:26:53;;;;;;;5.10;3.43;;;8.30;99.90;;;;;;5028629;28;20212;-75
2021/10/25 08:29:20;;;;;;;4.37;3.20;;;8.40;99.90;;;;;;5028464;28;20262;-75
2021/10/25 08:31:54;;;;;;;4.90;3.87;;;8.40;99.90;;;;;;5028311;28;20694;-74
2021/10/25 08:39:50;;;;;;;5.10;3.80;;;8.50;99.90;;;;;;5028150;28;20228;-75
2021/10/25 08:42:18;;;;;;;9.33;3.47;;;8.60;99.90;;;;;;5028187;28;20221;-75
2021/10/25 08:44:47;;;;;;;5.10;3.83;;;8.70;99.90;;;;;;5028655;28;20322;-75
2021/10/25 08:47:18;;;;;;;6.40;4.50;;;8.80;99.90;;;;;;5028432;28;20220;-74
2021/10/25 08:49:45;;;;;;;4.63;3.70;;;8.80;99.90;;;;;;5028358;28;20721;-75
2021/10/25 08:52:12;;;;;;;5.90;3.97;;;8.80;99.90;;;;;;5028376;28;20282;-75
2021/10/25 08:54:38;;;;;;;5.53;3.57;;;8.70;99.90;;;;;;5028005;28;20667;-75
2021/10/25 08:57:06;;;;;;;3.77;3.40;;;8.80;99.90;;;;;;5028150;28;20221;-75
2021/10/25 08:59:34;;;;;;;5.03;3.77;;;8.80;99.90;;;;;;5028493;28;20232;-74
2021/10/25 09:02:08;;;;;;;4.07;3.13;;;8.90;99.90;;;;;;5027518;28;20249;-75
2021/10/25 09:04:35;;;;;;;3.73;3.23;;;9.00;99.90;;;;;;5028022;28;20605;-75
2021/10/25 09:07:02;;;;;;;6.07;3.40;;;9.10;99.90;;;;;;5028303;28;20251;-75
2021/10/25 09:09:30;;;;;;;5.83;3.90;;;9.20;99.90;;;;;;5028343;28;20205;-75
2021/10/25 09:12:02;;;;;;;5.13;3.50;;;9.30;99.90;;;;;;5028168;28;20275;-75
2021/10/25 09:14:32;;;;;;;5.50;3.53;;;9.30;99.90;;;;;;5028424;28;20212;-75
2021/10/25 09:17:01;;;;;;;5.17;3.50;;;9.40;99.90;;;;;;5028120;28;20240;-75
2021/10/25 09:19:30;;;;;;;3.90;3.60;;;9.50;99.90;;;;;;5028233;28;20216;-75
2021/10/25 09:22:07;;;;;;;4.40;3.50;;;9.50;99.90;;;;;;5028242;28;20228;-75
2021/10/25 09:24:33;;;;;;;4.63;3.90;;;9.60;99.90;;;;;;5028011;28;20727;-75
2021/10/25 09:27:05;;;;;;;4.70;3.80;;;9.60;99.90;;;;;;5028027;28;20697;-75
2021/10/25 09:29:36;;;;;;;5.17;3.67;;;9.70;99.90;;;;;;5030680;28;20605;-76
2021/10/25 09:32:08;;;;;;;4.00;3.43;;;9.80;99.90;;;;;;5032152;28;20219;-75
2021/10/25 09:34:44;;;;;;;4.60;3.53;;;9.90;99.90;;;;;;5032135;28;20224;-76
2021/10/25 09:37:15;;;;;;;6.03;3.30;;;10.00;99.90;;;;;;5031313;28;20659;-76
2021/10/25 09:39:51;;;;;;;5.17;3.50;;;10.00;99.90;;;;;;5031599;28;20228;-76
2021/10/25 09:45:29;;;;;;;6.43;3.53;;;10.30;99.90;;;;;;5026424;28;20200;-75
2021/10/25 09:50:44;;;;;;;5.53;3.73;;;10.50;99.90;;;;;;5031339;28;20557;-76
2021/10/25 09:53:12;;;;;;;4.73;3.67;;;10.50;99.90;;;;;;5031357;28;20247;-75
2021/10/25 09:55:44;;;;;;;3.40;3.10;;;10.60;99.90;;;;;;5031135;28;20231;-76
2021/10/25 09:58:17;;;;;;;5.90;3.80;;;10.60;99.90;;;;;;5031335;28;20235;-76
2021/10/25 10:00:46;;;;;;;4.40;3.53;;;10.70;99.90;;;;;;5031250;28;20237;-76
2021/10/25 10:03:13;;;;;;;4.17;3.77;;;10.80;99.90;;;;;;5031205;28;20311;-76
2021/10/25 10:05:41;;;;;;;6.73;3.63;;;10.90;99.90;;;;;;5031471;28;20668;-76
2021/10/25 10:08:09;;;;;;;4.50;4.10;;;11.00;99.90;;;;;;5031297;28;20224;-75
2021/10/25 10:10:37;;;;;;;3.70;3.33;;;11.10;99.90;;;;;;5031417;28;20297;-76
2021/10/25 10:13:05;;;;;;;5.97;4.27;;;11.20;99.90;;;;;;5031379;28;20205;-76
2021/10/25 10:15:34;;;;;;;7.47;4.13;;;11.30;99.90;;;;;;5031270;28;20647;-75
2021/10/25 10:18:08;;;;;;;6.33;3.50;;;11.40;99.90;;;;;;5031015;28;20312;-76
2021/10/25 10:20:38;;;;;;;4.67;3.60;;;11.50;99.90;;;;;;5030866;28;20706;-76
2021/10/25 10:23:08;;;;;;;4.03;3.50;;;11.60;99.90;;;;;;5030945;28;20286;-76
2021/10/25 10:25:38;;;;;;;4.00;3.60;;;11.80;99.90;;;;;;5031076;28;20208;-76
2021/10/25 10:28:08;;;;;;;4.53;3.73;;;11.80;99.90;;;;;;5030813;28;20754;-75
2021/10/25 10:30:49;;;;;;;4.43;3.50;;;11.80;99.90;;;;;;5031007;28;20266;-75
2021/10/25 10:33:18;;;;;;;5.13;3.73;;;11.80;99.90;;;;;;5030811;28;20201;-76
2021/10/25 10:35:46;;;;;;;4.93;3.60;;;11.80;99.90;;;;;;5030946;28;20208;-76
2021/10/25 10:38:14;;;;;;;4.63;3.73;;;11.90;99.90;;;;;;5030716;28;20294;-76
2021/10/25 10:40:42;;;;;;;3.67;3.37;;;12.00;99.90;;;;;;5030565;28;20304;-75
2021/10/25 10:43:21;;;;;;;4.03;3.63;;;12.00;99.90;;;;;;5030372;28;20228;-75
2021/10/25 10:45:58;;;;;;;4.07;3.70;;;12.10;99.90;;;;;;5030734;28;20196;-75
2021/10/25 10:48:28;;;;;;;4.20;3.37;;;12.20;99.90;;;;;;5030525;28;20197;-76
2021/10/25 10:51:01;;;;;;;3.93;3.43;;;12.30;99.90;;;;;;5030372;28;20710;-75
2021/10/25 10:53:32;;;;;;;3.57;3.27;;;12.40;99.90;;;;;;5030479;28;20239;-76
2021/10/25 10:56:03;;;;;;;4.27;3.50;;;12.40;99.90;;;;;;5030125;28;20823;-76
2021/10/25 10:58:44;;;;;;;5.50;3.87;;;12.40;99.90;;;;;;5030284;28;20627;-75
2021/10/25 11:01:11;;;;;;;4.83;3.70;;;12.40;99.90;;;;;;5029996;28;20263;-76
2021/10/25 11:03:39;;;;;;;4.67;3.97;;;12.30;99.90;;;;;;5030137;28;20240;-76
2021/10/25 11:06:09;;;;;;;4.30;3.90;;;12.20;99.90;;;;;;5029931;28;20212;-75
2021/10/25 11:08:38;;;;;;;4.03;3.40;;;12.30;99.90;;;;;;5030075;28;20201;-76
2021/10/25 11:11:06;;;;;;;5.00;3.90;;;12.20;99.90;;;;;;5029918;28;20209;-76
2021/10/25 11:13:41;;;;;;;5.23;4.17;;;12.20;99.90;;;;;;5029898;28;20216;-76
2021/10/25 11:16:11;;;;;;;6.80;4.03;;;12.30;99.90;;;;;;5029969;28;20201;-75
2021/10/25 11:18:42;;;;;;;4.20;3.77;;;12.30;99.90;;;;;;5029474;28;20989;-76
2021/10/25 11:21:19;;;;;;;4.53;3.53;;;12.30;99.90;;;;;;5029109;28;20264;-76
2021/10/25 11:23:48;;;;;;;6.10;4.10;;;12.30;99.90;;;;;;5029730;28;20220;-75
2021/10/25 11:26:19;;;;;;;4.73;3.23;;;12.20;99.90;;;;;;5029212;28;20660;-76
2021/10/25 11:29:07;;;;;;;5.37;3.70;;;12.20;99.90;;;;;;5029605;28;20201;-76
2021/10/25 11:31:36;;;;;;;6.20;3.67;;;12.10;99.90;;;;;;5029366;28;20812;-76
2021/10/25 11:34:10;;;;;;;5.47;3.90;;;12.00;99.90;;;;;;5029708;28;20205;-75
2021/10/25 11:36:37;;;;;;;5.57;3.70;;;12.00;99.90;;;;;;5029779;28;20225;-76
2021/10/25 11:39:09;;;;;;;4.93;3.90;;;12.10;99.90;;;;;;5028867;28;20233;-75
2021/10/25 11:41:47;;;;;;;4.70;3.87;;;12.30;99.90;;;;;;5029137;28;20235;-76
2021/10/25 11:44:14;;;;;;;6.77;3.60;;;12.50;99.90;;;;;;5029126;28;20246;-76
2021/10/25 11:46:41;;;;;;;4.90;3.97;;;12.60;99.90;;;;;;5029442;28;20604;-76
2021/10/25 11:49:10;;;;;;;5.63;3.53;;;12.50;99.90;;;;;;5029091;28;20274;-75
2021/10/25 11:51:47;;;;;;;6.03;3.87;;;12.50;99.90;;;;;;5028410;28;20236;-76
2021/10/25 11:54:14;;;;;;;5.17;4.07;;;12.40;99.90;;;;;;5029104;28;20761;-76
2021/10/25 11:56:48;;;;;;;7.70;3.97;;;12.40;99.90;;;;;;5029515;28;20216;-76
2021/10/25 11:59:15;;;;;;;7.63;3.90;;;12.40;99.90;;;;;;5028960;28;20670;-76
2021/10/25 12:01:43;;;;;;;4.93;3.67;;;12.40;99.90;;;;;;5028772;28;20298;-76
2021/10/25 12:04:11;;;;;;;4.37;3.60;;;12.50;99.90;;;;;;5028972;28;20240;-75
2021/10/25 12:06:37;;;;;;;4.57;3.60;;;12.50;99.90;;;;;;5029086;28;20200;-76
2021/10/25 12:09:06;;;;;;;5.57;3.80;;;12.50;99.90;;;;;;5028934;28;20217;-76
2021/10/25 12:11:53;;;;;;;4.20;3.67;;;12.60;99.90;;;;;;5028950;28;20209;-76
2021/10/25 12:14:25;;;;;;;6.23;4.07;;;12.60;99.90;;;;;;5028820;28;20208;-76
2021/10/25 12:16:52;;;;;;;4.77;3.80;;;12.60;99.90;;;;;;5028360;28;20232;-76
2021/10/25 12:19:21;;;;;;;6.03;4.00;;;12.60;99.90;;;;;;5028399;28;20708;-76
2021/10/25 12:21:48;;;;;;;4.83;3.83;;;12.60;99.90;;;;;;5028992;28;20232;-76
2021/10/25 12:24:15;;;;;;;4.30;3.73;;;12.60;99.90;;;;;;5028331;28;20699;-75
2021/10/25 12:26:43;;;;;;;7.27;4.00;;;12.50;99.90;;;;;;5028792;28;20208;-75
2021/10/25 12:29:14;;;;;;;5.20;3.70;;;12.40;99.90;;;;;;5028490;28;20208;-75
2021/10/25 12:31:41;;;;;;;6.67;4.40;;;12.40;99.90;;;;;;5028750;28;20263;-75
2021/10/25 12:34:08;;;;;;;5.77;3.90;;;12.30;99.90;;;;;;5028566;28;20233;-76
2021/10/25 12:36:41;;;;;;;4.93;3.80;;;12.20;99.90;;;;;;5028719;28;20263;-75
2021/10/25 12:39:10;;;;;;;6.93;4.37;;;12.20;99.90;;;;;;5028569;28;20850;-75
2021/10/25 12:41:52;;;;;;;6.83;4.27;;;12.20;99.90;;;;;;5028439;28;20209;-75
2021/10/25 12:44:27;;;;;;;5.80;3.83;;;12.20;99.90;;;;;;5028207;28;20231;-76
2021/10/25 12:47:06;;;;;;;4.10;3.70;;;12.10;99.90;;;;;;5028429;28;20208;-75
2021/10/25 12:49:33;;;;;;;6.00;4.17;;;12.20;99.90;;;;;;5028345;28;20208;-75
2021/10/25 12:52:06;;;;;;;5.93;4.00;;;12.20;99.90;;;;;;5027948;28;20219;-75
2021/10/25 12:54:36;;;;;;;4.83;4.20;;;12.20;99.90;;;;;;5028234;28;20237;-75
2021/10/25 12:57:14;;;;;;;6.57;4.10;;;12.20;99.90;;;;;;5028293;28;20200;-75
2021/10/25 12:59:41;;;;;;;5.53;3.80;;;12.20;99.90;;;;;;5028189;28;20200;-75
2021/10/25 13:02:09;;;;;;;6.93;4.30;;;12.10;99.90;;;;;;5028024;28;20239;-75
2021/10/25 13:04:36;;;;;;;5.10;4.20;;;12.10;99.90;;;;;;5032267;28;20259;-75
2021/10/25 13:07:13;;;;;;;7.63;4.00;;;12.10;99.90;;;;;;5032344;28;20208;-75
2021/10/25 13:09:50;;;;;;;4.73;4.10;;;12.00;99.90;;;;;;5032283;28;20192;-75
2021/10/25 13:12:17;;;;;;;6.50;4.73;;;12.00;99.90;;;;;;5032184;28;20208;-75
2021/10/25 13:14:45;;;;;;;4.50;4.10;;;12.00;99.90;;;;;;5032154;28;20228;-75
2021/10/25 13:17:13;;;;;;;4.80;4.30;;;12.00;99.90;;;;;;5031838;28;20228;-75
2021/10/25 13:19:40;;;;;;;7.30;4.57;;;11.90;99.90;;;;;;5031792;28;20256;-75
2021/10/25 13:22:06;;;;;;;7.53;5.17;;;12.00;99.90;;;;;;5032120;28;20278;-75
2021/10/25 13:24:34;;;;;;;5.13;4.50;;;12.00;99.90;;;;;;5032007;28;20228;-75
2021/10/25 13:27:01;;;;;;;4.87;4.40;;;12.00;99.90;;;;;;5031720;28;20729;-75
2021/10/25 13:29:28;;;;;;;5.97;4.40;;;12.00;99.90;;;;;;5031625;28;20219;-75
2021/10/25 13:31:55;;;;;;;5.77;4.70;;;12.00;99.90;;;;;;5031929;28;20221;-75
2021/10/25 13:34:21;;;;;;;6.87;4.80;;;12.00;99.90;;;;;;5031944;28;20205;-75
2021/10/25 13:36:48;;;;;;;5.53;4.10;;;12.00;99.90;;;;;;5031763;28;20209;-75
2021/10/25 13:39:16;;;;;;;4.70;4.30;;;12.00;99.90;;;;;;5031271;28;20699;-75
2021/10/25 13:41:45;;;;;;;4.77;4.27;;;11.90;99.90;;;;;;5031518;28;20297;-76
2021/10/25 13:44:11;;;;;;;7.27;4.50;;;11.90;99.90;;;;;;5031487;28;20229;-75
2021/10/25 13:46:41;;;;;;;6.27;4.07;;;11.90;99.90;;;;;;5031548;28;20201;-75
2021/10/25 13:49:07;;;;;;;6.30;4.80;;;11.90;99.90;;;;;;5031302;28;20605;-75
2021/10/25 13:51:35;;;;;;;6.07;4.60;;;11.90;99.90;;;;;;5031522;28;20227;-74
2021/10/25 13:54:02;;;;;;;9.30;5.10;;;11.90;99.90;;;;;;5031328;28;20237;-75
2021/10/25 13:56:29;;;;;;;5.17;4.50;;;11.90;99.90;;;;;;5031274;28;20201;-75
2021/10/25 13:58:57;;;;;;;5.00;3.80;;;11.90;99.90;;;;;;5031214;28;20208;-75
2021/10/25 14:01:25;;;;;;;5.03;4.33;;;11.90;99.90;;;;;;5030869;28;20233;-75
2021/10/25 14:03:52;;;;;;;4.83;4.43;;;11.90;99.90;;;;;;5031298;28;20271;-75
2021/10/25 14:06:20;;;;;;;6.97;5.00;;;11.90;99.90;;;;;;5031300;28;20658;-75
2021/10/25 14:08:49;;;;;;;6.33;4.60;;;11.90;99.90;;;;;;5030959;28;20205;-75
2021/10/25 14:11:15;;;;;;;5.63;4.70;;;11.80;99.90;;;;;;5031144;28;20248;-75
2021/10/25 14:13:50;;;;;;;5.77;4.37;;;11.90;99.90;;;;;;5030912;28;20252;-75
2021/10/25 14:16:33;;;;;;;5.67;4.80;;;11.80;99.90;;;;;;5030498;28;20393;-75
2021/10/25 14:19:01;;;;;;;5.03;4.30;;;11.80;99.90;;;;;;5031003;28;20278;-75
2021/10/25 14:21:33;;;;;;;7.40;4.60;;;11.80;99.90;;;;;;5030792;28;20201;-75